^^
Station Historical Data
Daily Summary for January 19, 2018 Units:  English    Metric   Both
« Previous Day
Next Day »
Daily Weekly Monthly Yearly Custom
  High: Low: Average:
Temperature: TemperatureF °F 68.5 °F 79 °F
Dew Point: DewpointF °F 42.1 °F 49.6 °F
Humidity: Humidity% 17% 38%
Wind Speed: WindSpeedMPHmph 0.0mph 3mph
Wind Gust: WindSpeedGustMPHmph - -
Wind- - SSE
Pressure: PressureIn in 29.49 in -
Precipitation: 0.00 in    
Historical Graphs
 
 
Tabular Data for January 19, 2018
Time Temperature Dew Point Pressure Wind Wind Speed Wind Gust Humidity Rainfall Rate (Hourly) solar Conditions
TemperatureF °F DewpointF °F PressureIn in Calm     Humidity% HourlyPrecipIn in SolarRadiationWatts/m^2 W/m2 Conditions
00:04 74.7 °F 52.0 °F 29.69 in Calm   3.0 mph 45% 0.00 in 0.0 W/m2
00:09 74.5 °F 51.8 °F 29.68 in SSW 6.0 mph 6.0 mph 45% 0.00 in 0.0 W/m2
00:15 74.1 °F 51.4 °F 29.68 in SW 2.9 mph 5.0 mph 45% 0.00 in 0.0 W/m2
00:20 74.1 °F 51.4 °F 29.68 in South 2.0 mph 4.0 mph 45% 0.00 in 0.0 W/m2
00:26 73.9 °F 51.8 °F 29.67 in Calm   5.0 mph 46% 0.00 in 0.0 W/m2
00:31 73.8 °F 51.1 °F 29.68 in SSE 2.0 mph 6.0 mph 45% 0.00 in 0.0 W/m2
00:36 73.9 °F 51.3 °F 29.67 in SSE 2.9 mph 11.0 mph 45% 0.00 in 0.0 W/m2
00:41 73.9 °F 51.3 °F 29.67 in SSE 2.9 mph 6.0 mph 45% 0.00 in 0.0 W/m2
00:46 74.1 °F 51.4 °F 29.67 in SSE 0.9 mph 7.0 mph 45% 0.00 in 0.0 W/m2
00:51 74.1 °F 50.9 °F 29.67 in SW 2.9 mph 5.0 mph 44% 0.00 in 0.0 W/m2
00:56 74.1 °F 50.2 °F 29.66 in South 6.0 mph 13.0 mph 43% 0.00 in 0.0 W/m2
01:02 74.1 °F 50.2 °F 29.66 in SSW 4.9 mph 9.0 mph 43% 0.00 in 0.0 W/m2
01:07 74.3 °F 50.4 °F 29.65 in SSW 2.9 mph 13.0 mph 43% 0.00 in 0.0 W/m2
01:12 74.3 °F 49.6 °F 29.65 in South 4.0 mph 13.0 mph 42% 0.00 in 0.0 W/m2
01:17 74.3 °F 50.4 °F 29.65 in SW 4.0 mph 9.0 mph 43% 0.00 in 0.0 W/m2
01:23 74.1 °F 50.2 °F 29.65 in SSE 2.0 mph 9.0 mph 43% 0.00 in 0.0 W/m2
01:28 74.1 °F 50.2 °F 29.65 in South 10.1 mph 12.0 mph 43% 0.00 in 0.0 W/m2
01:33 74.1 °F 50.2 °F 29.65 in SSE 4.9 mph 9.0 mph 43% 0.00 in 0.0 W/m2
01:38 74.3 °F 50.4 °F 29.65 in ESE 6.9 mph 16.0 mph 43% 0.00 in 0.0 W/m2
01:43 74.5 °F 50.5 °F 29.65 in South 2.9 mph 10.0 mph 43% 0.00 in 0.0 W/m2
01:48 74.5 °F 50.5 °F 29.64 in SW 6.9 mph 10.0 mph 43% 0.00 in 0.0 W/m2
01:53 74.5 °F 50.5 °F 29.64 in SSW 8.9 mph 13.0 mph 43% 0.00 in 0.0 W/m2
01:58 74.3 °F 50.4 °F 29.64 in SSE 2.9 mph 11.0 mph 43% 0.00 in 0.0 W/m2
02:03 74.1 °F 50.2 °F 29.64 in WSW 6.9 mph 8.0 mph 43% 0.00 in 0.0 W/m2
02:08 73.9 °F 50.0 °F 29.64 in SSE 13.0 mph 13.0 mph 43% 0.00 in 0.0 W/m2
02:14 73.9 °F 50.7 °F 29.64 in SSE 2.9 mph 9.0 mph 44% 0.00 in 0.0 W/m2
02:19 73.8 °F 50.5 °F 29.64 in South 2.0 mph 7.0 mph 44% 0.00 in 0.0 W/m2
02:24 73.8 °F 50.5 °F 29.64 in South 0.9 mph 5.0 mph 44% 0.00 in 0.0 W/m2
02:29 73.8 °F 50.5 °F 29.65 in WSW 2.0 mph 5.0 mph 44% 0.00 in 0.0 W/m2
02:34 73.8 °F 50.5 °F 29.65 in Calm   3.0 mph 44% 0.00 in 0.0 W/m2
02:39 73.6 °F 50.4 °F 29.65 in NE 4.0 mph 4.0 mph 44% 0.00 in 0.0 W/m2
02:44 73.2 °F 50.0 °F 29.65 in NNW 2.9 mph 4.0 mph 44% 0.00 in 0.0 W/m2
02:49 73.0 °F 50.4 °F 29.65 in WNW 4.0 mph 5.0 mph 45% 0.00 in 0.0 W/m2
02:55 72.9 °F 50.4 °F 29.65 in Calm   2.0 mph 45% 0.00 in 0.0 W/m2
03:00 72.7 °F 50.7 °F 29.65 in Calm   1.0 mph 46% 0.00 in 0.0 W/m2
03:05 72.3 °F 50.4 °F 29.64 in Calm   1.0 mph 46% 0.00 in 0.0 W/m2
03:11 72.1 °F 50.2 °F 29.64 in Calm     46% 0.00 in 0.0 W/m2
03:16 72.0 °F 50.0 °F 29.64 in Calm   3.0 mph 46% 0.00 in 0.0 W/m2
03:21 72.0 °F 50.7 °F 29.64 in WNW 0.9 mph 1.0 mph 47% 0.00 in 0.0 W/m2
03:26 71.8 °F 50.5 °F 29.64 in Calm   3.0 mph 47% 0.00 in 0.0 W/m2
03:31 71.4 °F 50.2 °F 29.64 in NW 0.9 mph 3.0 mph 47% 0.00 in 0.0 W/m2
03:36 71.4 °F 50.2 °F 29.64 in SW 2.0 mph 9.0 mph 47% 0.00 in 0.0 W/m2
03:41 72.0 °F 50.0 °F 29.64 in SW 2.0 mph 5.0 mph 46% 0.00 in 0.0 W/m2
03:46 72.0 °F 50.0 °F 29.64 in WSW 2.9 mph 6.0 mph 46% 0.00 in 0.0 W/m2
03:51 72.1 °F 50.2 °F 29.64 in South 0.9 mph 4.0 mph 46% 0.00 in 0.0 W/m2
03:56 72.1 °F 50.2 °F 29.64 in NNE 2.9 mph 3.0 mph 46% 0.00 in 0.0 W/m2
04:01 72.0 °F 50.0 °F 29.64 in NW 2.9 mph 6.0 mph 46% 0.00 in 0.0 W/m2
04:06 71.8 °F 50.5 °F 29.65 in Calm   4.0 mph 47% 0.00 in 0.0 W/m2
04:11 71.4 °F 50.2 °F 29.64 in Calm   1.0 mph 47% 0.00 in 0.0 W/m2
04:16 71.2 °F 50.5 °F 29.64 in Calm     48% 0.00 in 0.0 W/m2
04:21 71.1 °F 50.4 °F 29.64 in Calm   2.0 mph 48% 0.00 in 0.0 W/m2
04:26 70.9 °F 50.2 °F 29.64 in Calm   1.0 mph 48% 0.00 in 0.0 W/m2
04:31 70.5 °F 49.8 °F 29.64 in Calm   4.0 mph 48% 0.00 in 0.0 W/m2
04:36 70.5 °F 50.4 °F 29.64 in Calm     49% 0.00 in 0.0 W/m2
04:42 70.3 °F 50.4 °F 29.64 in Calm     49% 0.00 in 0.0 W/m2
04:47 70.2 °F 50.2 °F 29.64 in Calm   1.0 mph 49% 0.00 in 0.0 W/m2
04:52 70.2 °F 50.2 °F 29.64 in Calm   1.0 mph 49% 0.00 in 0.0 W/m2
04:58 70.0 °F 50.0 °F 29.64 in Calm     49% 0.00 in 0.0 W/m2
05:03 70.0 °F 50.5 °F 29.64 in Calm     50% 0.00 in 0.0 W/m2
05:08 69.6 °F 50.2 °F 29.64 in Calm   1.0 mph 50% 0.00 in 0.0 W/m2
05:14 69.6 °F 49.6 °F 29.64 in West 0.9 mph 2.0 mph 49% 0.00 in 0.0 W/m2
05:19 69.4 °F 50.0 °F 29.65 in Calm     50% 0.00 in 0.0 W/m2
05:24 69.4 °F 50.0 °F 29.65 in Calm   1.0 mph 50% 0.00 in 0.0 W/m2
05:29 69.3 °F 50.4 °F 29.65 in Calm     51% 0.00 in 0.0 W/m2
05:35 69.1 °F 50.2 °F 29.65 in Calm   1.0 mph 51% 0.00 in 0.0 W/m2
05:40 69.1 °F 50.2 °F 29.65 in Calm     51% 0.00 in 0.0 W/m2
05:45 68.9 °F 50.0 °F 29.65 in Calm     51% 0.00 in 0.0 W/m2
05:50 68.7 °F 50.4 °F 29.66 in Calm   1.0 mph 52% 0.00 in 0.0 W/m2
05:55 68.5 °F 50.2 °F 29.66 in Calm   1.0 mph 52% 0.00 in 0.0 W/m2
06:00 68.5 °F 50.2 °F 29.66 in Calm   1.0 mph 52% 0.00 in 0.0 W/m2
06:06 68.9 °F 49.5 °F 29.66 in SSW 2.0 mph 3.0 mph 50% 0.00 in 0.0 W/m2
06:10 69.4 °F 50.0 °F 29.66 in SW 0.9 mph 2.0 mph 50% 0.00 in 0.0 W/m2
06:15 69.6 °F 49.6 °F 29.66 in Calm     49% 0.00 in 0.0 W/m2
06:20 69.6 °F 49.6 °F 29.66 in Calm     49% 0.00 in 0.0 W/m2
06:25 69.4 °F 50.0 °F 29.66 in Calm     50% 0.00 in 5.0 W/m2
06:31 69.3 °F 49.8 °F 29.66 in Calm   2.0 mph 50% 0.00 in 7.0 W/m2
06:36 69.3 °F 49.8 °F 29.67 in SE 2.9 mph 4.0 mph 50% 0.00 in 11.0 W/m2
06:41 69.3 °F 49.3 °F 29.67 in Calm   6.0 mph 49% 0.00 in 12.0 W/m2
06:47 69.4 °F 48.9 °F 29.67 in Calm   1.0 mph 48% 0.00 in 14.0 W/m2
06:53 70.0 °F 49.5 °F 29.67 in Calm   8.0 mph 48% 0.00 in 18.0 W/m2
06:58 70.3 °F 49.6 °F 29.67 in SSE 4.9 mph 7.0 mph 48% 0.00 in 21.0 W/m2
07:03 70.7 °F 49.5 °F 29.67 in SE 2.9 mph 4.0 mph 47% 0.00 in 21.0 W/m2
07:08 71.1 °F 49.8 °F 29.67 in South 6.0 mph 8.0 mph 47% 0.00 in 23.0 W/m2
07:13 71.2 °F 50.0 °F 29.67 in SSW 0.9 mph 6.0 mph 47% 0.00 in 25.0 W/m2
07:18 71.8 °F 49.8 °F 29.67 in South 0.9 mph 10.0 mph 46% 0.00 in 26.0 W/m2
07:24 72.1 °F 49.1 °F 29.66 in SSW 0.9 mph 11.0 mph 44% 0.00 in 28.0 W/m2
07:29 72.7 °F 48.9 °F 29.66 in SSE 2.9 mph 11.0 mph 43% 0.00 in 30.0 W/m2
07:35 73.2 °F 48.7 °F 29.65 in SSE 10.1 mph 16.0 mph 42% 0.00 in 32.0 W/m2
07:40 73.6 °F 49.1 °F 29.65 in ESE 4.9 mph 13.0 mph 42% 0.00 in 33.0 W/m2
07:45 73.9 °F 48.7 °F 29.65 in SSE 6.9 mph 9.0 mph 41% 0.00 in 53.0 W/m2
07:51 74.5 °F 48.6 °F 29.65 in ESE 4.0 mph 12.0 mph 40% 0.00 in 98.0 W/m2
07:56 74.8 °F 48.2 °F 29.65 in SE 6.0 mph 14.0 mph 39% 0.00 in 283.0 W/m2
08:01 75.4 °F 48.0 °F 29.65 in SE 6.0 mph 21.0 mph 38% 0.00 in 325.0 W/m2
08:07 75.7 °F 48.4 °F 29.65 in SE 10.1 mph 16.0 mph 38% 0.00 in 355.0 W/m2
08:12 76.3 °F 48.0 °F 29.65 in ESE 8.9 mph 18.0 mph 37% 0.00 in 376.0 W/m2
08:17 76.6 °F 48.4 °F 29.65 in SSE 12.1 mph 20.0 mph 37% 0.00 in 397.0 W/m2
08:23 76.8 °F 47.8 °F 29.65 in ESE 13.0 mph 18.0 mph 36% 0.00 in 424.0 W/m2
08:28 77.2 °F 47.5 °F 29.65 in SSE 4.9 mph 17.0 mph 35% 0.00 in 443.0 W/m2
08:33 77.4 °F 48.4 °F 29.65 in South 6.0 mph 18.0 mph 36% 0.00 in 461.0 W/m2
08:39 77.9 °F 47.3 °F 29.65 in South 4.9 mph 20.0 mph 34% 0.00 in 489.0 W/m2
08:44 78.3 °F 47.7 °F 29.65 in SE 10.1 mph 22.0 mph 34% 0.00 in 508.0 W/m2
08:49 78.4 °F 46.9 °F 29.65 in SE 6.9 mph 19.0 mph 33% 0.00 in 526.0 W/m2
08:55 79.0 °F 47.5 °F 29.65 in SE 8.1 mph 12.0 mph 33% 0.00 in 548.0 W/m2
09:00 79.3 °F 46.9 °F 29.65 in ESE 15.0 mph 23.0 mph 32% 0.00 in 568.0 W/m2
09:05 79.5 °F 46.2 °F 29.65 in SSE 8.1 mph 21.0 mph 31% 0.00 in 585.0 W/m2
09:11 80.1 °F 46.8 °F 29.65 in SSE 6.0 mph 13.0 mph 31% 0.00 in 608.0 W/m2
09:16 80.4 °F 46.9 °F 29.65 in SE 12.1 mph 12.1 mph 31% 0.00 in 626.0 W/m2
09:21 80.8 °F 46.4 °F 29.65 in ESE 2.9 mph 20.0 mph 30% 0.00 in 645.0 W/m2
09:27 81.1 °F 46.8 °F 29.65 in South 11.0 mph 14.0 mph 30% 0.00 in 666.0 W/m2
09:32 81.3 °F 46.9 °F 29.65 in SE 8.9 mph 16.0 mph 30% 0.00 in 682.0 W/m2
09:37 81.7 °F 47.3 °F 29.65 in SE 4.0 mph 14.0 mph 30% 0.00 in 700.0 W/m2
09:43 82.0 °F 46.6 °F 29.65 in SE 6.9 mph 9.0 mph 29% 0.00 in 717.0 W/m2
09:48 82.6 °F 46.2 °F 29.65 in SSE 10.1 mph 17.0 mph 28% 0.00 in 737.0 W/m2
09:53 82.8 °F 47.3 °F 29.65 in SE 8.9 mph 13.0 mph 29% 0.00 in 747.0 W/m2
09:59 83.1 °F 46.6 °F 29.65 in SSE 16.1 mph 18.0 mph 28% 0.00 in 763.0 W/m2
10:04 83.1 °F 46.6 °F 29.65 in ESE 6.0 mph 11.0 mph 28% 0.00 in 782.0 W/m2
10:09 83.5 °F 46.9 °F 29.65 in SSE 4.9 mph 16.0 mph 28% 0.00 in 798.0 W/m2
10:15 84.0 °F 47.5 °F 29.65 in SSW 8.9 mph 15.0 mph 28% 0.00 in 814.0 W/m2
10:21 84.2 °F 46.6 °F 29.65 in SE 6.9 mph 13.0 mph 27% 0.00 in 831.0 W/m2
10:26 84.4 °F 46.8 °F 29.64 in South 6.9 mph 14.0 mph 27% 0.00 in 846.0 W/m2
10:31 84.6 °F 46.9 °F 29.64 in ESE 8.1 mph 16.0 mph 27% 0.00 in 858.0 W/m2
10:36 84.9 °F 47.1 °F 29.64 in SE 4.9 mph 10.0 mph 27% 0.00 in 872.0 W/m2
10:41 85.3 °F 47.5 °F 29.64 in SE 13.0 mph 15.0 mph 27% 0.00 in 886.0 W/m2
10:46 85.5 °F 46.6 °F 29.64 in SSE 6.0 mph 11.0 mph 26% 0.00 in 895.0 W/m2
10:52 85.6 °F 46.8 °F 29.64 in SSE 4.9 mph 18.0 mph 26% 0.00 in 912.0 W/m2
10:57 85.8 °F 46.9 °F 29.64 in South 8.9 mph 11.0 mph 26% 0.00 in 921.0 W/m2
11:02 86.4 °F 47.5 °F 29.64 in SE 8.1 mph 11.0 mph 26% 0.00 in 930.0 W/m2
11:07 86.7 °F 47.7 °F 29.64 in SE 10.1 mph 10.1 mph 26% 0.00 in 940.0 W/m2
11:12 86.9 °F 46.8 °F 29.64 in SE 2.0 mph 10.0 mph 25% 0.00 in 953.0 W/m2
11:17 87.1 °F 46.9 °F 29.63 in East 2.0 mph 10.0 mph 25% 0.00 in 963.0 W/m2
11:22 87.1 °F 48.0 °F 29.63 in SE 11.0 mph 11.0 mph 26% 0.00 in 972.0 W/m2
11:27 87.3 °F 48.2 °F 29.63 in SE 8.1 mph 10.0 mph 26% 0.00 in 983.0 W/m2
11:33 87.6 °F 47.5 °F 29.63 in ESE 8.1 mph 10.0 mph 25% 0.00 in 990.0 W/m2
11:38 88.0 °F 47.8 °F 29.63 in SSE 6.0 mph 7.0 mph 25% 0.00 in 997.0 W/m2
11:43 88.2 °F 46.8 °F 29.63 in SE 2.0 mph 8.0 mph 24% 0.00 in 1000.0 W/m2
11:49 88.5 °F 47.1 °F 29.63 in ESE 2.0 mph 8.0 mph 24% 0.00 in 1011.0 W/m2
11:54 89.1 °F 47.7 °F 29.63 in ESE 4.0 mph 8.0 mph 24% 0.00 in 1016.0 W/m2
11:59 89.2 °F 47.7 °F 29.63 in East 2.9 mph 8.0 mph 24% 0.00 in 1025.0 W/m2
12:04 89.6 °F 48.0 °F 29.62 in SE 4.9 mph 8.0 mph 24% 0.00 in 1039.0 W/m2
12:09 89.8 °F 48.2 °F 29.62 in SSE 6.0 mph 6.0 mph 24% 0.00 in 1074.0 W/m2
12:14 90.0 °F 47.1 °F 29.62 in SE 2.0 mph 8.0 mph 23% 0.00 in 1072.0 W/m2
12:19 90.3 °F 47.5 °F 29.62 in WSW 2.0 mph 7.0 mph 23% 0.00 in 114.0 W/m2
12:24 89.6 °F 46.9 °F 29.62 in SE 4.9 mph 7.0 mph 23% 0.00 in 146.0 W/m2
12:29 88.9 °F 46.2 °F 29.61 in ESE 0.9 mph 5.0 mph 23% 0.00 in 1151.0 W/m2
12:34 89.2 °F 46.6 °F 29.61 in NNE 6.0 mph 10.0 mph 23% 0.00 in 1151.0 W/m2
12:40 90.0 °F 47.1 °F 29.61 in WSW 2.0 mph 6.0 mph 23% 0.00 in 1162.0 W/m2
12:45 90.0 °F 47.1 °F 29.61 in WSW 6.9 mph 8.0 mph 23% 0.00 in 1165.0 W/m2
12:51 89.2 °F 46.6 °F 29.61 in Calm   5.0 mph 23% 0.00 in 244.0 W/m2
12:56 89.2 °F 46.6 °F 29.61 in SE 2.9 mph 9.0 mph 23% 0.00 in 1241.0 W/m2
13:01 89.8 °F 45.9 °F 29.60 in NNW 0.9 mph 2.0 mph 22% 0.00 in 1223.0 W/m2
13:06 90.3 °F 46.4 °F 29.60 in NW 0.9 mph 6.0 mph 22% 0.00 in 1266.0 W/m2
13:11 90.7 °F 46.6 °F 29.60 in Calm   4.0 mph 22% 0.00 in 322.0 W/m2
13:16 90.7 °F 46.6 °F 29.60 in East 4.0 mph 10.0 mph 22% 0.00 in 237.0 W/m2
13:21 90.3 °F 46.4 °F 29.60 in Calm   6.0 mph 22% 0.00 in 218.0 W/m2
13:27 90.3 °F 47.5 °F 29.60 in ESE 2.0 mph 4.0 mph 23% 0.00 in 216.0 W/m2
13:32 90.1 °F 46.2 °F 29.60 in South 0.9 mph 2.0 mph 22% 0.00 in 243.0 W/m2
13:37 90.0 °F 46.0 °F 29.60 in SE 2.0 mph 3.0 mph 22% 0.00 in 221.0 W/m2
13:42 89.6 °F 45.7 °F 29.59 in SSW 0.9 mph 2.0 mph 22% 0.00 in 281.0 W/m2
13:47 89.4 °F 45.5 °F 29.59 in South 0.9 mph 3.0 mph 22% 0.00 in 336.0 W/m2
13:52 89.4 °F 46.8 °F 29.59 in Calm   7.0 mph 23% 0.00 in 352.0 W/m2
13:57 89.2 °F 46.6 °F 29.59 in SW 2.0 mph 6.0 mph 23% 0.00 in 413.0 W/m2
14:02 89.4 °F 46.8 °F 29.59 in South 2.0 mph 4.0 mph 23% 0.00 in 457.0 W/m2
14:07 89.8 °F 44.6 °F 29.58 in Calm   4.0 mph 21% 0.00 in 1243.0 W/m2
14:12 90.3 °F 46.4 °F 29.58 in Calm   4.0 mph 22% 0.00 in 1250.0 W/m2
14:17 91.6 °F 46.0 °F 29.58 in ESE 0.9 mph 7.0 mph 21% 0.00 in 1223.0 W/m2
14:22 92.8 °F 45.9 °F 29.57 in SSE 4.9 mph 7.0 mph 20% 0.00 in 1227.0 W/m2
14:28 93.9 °F 45.3 °F 29.57 in South 2.0 mph 8.0 mph 19% 0.00 in 1197.0 W/m2
14:33 94.1 °F 45.5 °F 29.57 in SW 2.0 mph 5.0 mph 19% 0.00 in 1216.0 W/m2
14:38 93.9 °F 45.3 °F 29.56 in SW 2.9 mph 5.0 mph 19% 0.00 in 1183.0 W/m2
14:43 93.9 °F 45.3 °F 29.56 in SSE 10.1 mph 15.0 mph 19% 0.00 in 1165.0 W/m2
14:48 94.3 °F 45.7 °F 29.56 in East 4.9 mph 10.0 mph 19% 0.00 in 1141.0 W/m2
14:53 94.6 °F 44.6 °F 29.55 in South 0.9 mph 3.0 mph 18% 0.00 in 1063.0 W/m2
14:58 94.6 °F 44.6 °F 29.55 in SSW 2.9 mph 7.0 mph 18% 0.00 in 1100.0 W/m2
15:03 94.5 °F 45.9 °F 29.54 in South 2.0 mph 6.0 mph 19% 0.00 in 1074.0 W/m2
15:08 94.5 °F 44.4 °F 29.54 in SSW 4.9 mph 7.0 mph 18% 0.00 in 1071.0 W/m2
15:14 94.5 °F 44.4 °F 29.54 in ESE 0.9 mph 7.0 mph 18% 0.00 in 1035.0 W/m2
15:19 95.4 °F 45.1 °F 29.54 in SSW 0.9 mph 3.0 mph 18% 0.00 in 1071.0 W/m2
15:24 95.7 °F 45.5 °F 29.54 in ESE 6.9 mph 8.0 mph 18% 0.00 in 267.0 W/m2
15:29 95.2 °F 43.5 °F 29.53 in East 6.9 mph 9.0 mph 17% 0.00 in 236.0 W/m2
15:34 94.5 °F 44.4 °F 29.53 in South 6.0 mph 8.0 mph 18% 0.00 in 292.0 W/m2
15:39 93.6 °F 43.7 °F 29.52 in SW 2.0 mph 9.0 mph 18% 0.00 in 313.0 W/m2
15:44 93.4 °F 43.5 °F 29.52 in SSE 2.0 mph 7.0 mph 18% 0.00 in 269.0 W/m2
15:49 92.8 °F 44.6 °F 29.52 in SSE 0.9 mph 5.0 mph 19% 0.00 in 271.0 W/m2
15:54 92.7 °F 44.4 °F 29.52 in Calm   3.0 mph 19% 0.00 in 213.0 W/m2
16:00 92.5 °F 44.2 °F 29.52 in SE 2.0 mph 2.0 mph 19% 0.00 in 179.0 W/m2
16:05 91.9 °F 43.7 °F 29.52 in SE 4.9 mph 10.0 mph 19% 0.00 in 218.0 W/m2
16:10 91.6 °F 43.5 °F 29.51 in SSE 2.9 mph 8.0 mph 19% 0.00 in 195.0 W/m2
16:15 91.2 °F 43.2 °F 29.51 in SE 2.9 mph 5.0 mph 19% 0.00 in 160.0 W/m2
16:20 91.0 °F 43.0 °F 29.50 in ESE 2.0 mph 6.0 mph 19% 0.00 in 121.0 W/m2
16:25 90.7 °F 42.8 °F 29.50 in Calm   1.0 mph 19% 0.00 in 98.0 W/m2
16:30 90.7 °F 44.1 °F 29.50 in Calm   3.0 mph 20% 0.00 in 100.0 W/m2
16:35 90.5 °F 42.6 °F 29.50 in Calm     19% 0.00 in 90.0 W/m2
16:40 90.5 °F 43.9 °F 29.50 in Calm   2.0 mph 20% 0.00 in 67.0 W/m2
16:45 90.3 °F 42.4 °F 29.49 in Calm   3.0 mph 19% 0.00 in 53.0 W/m2
16:51 90.1 °F 42.3 °F 29.49 in WSW 2.0 mph 5.0 mph 19% 0.00 in 47.0 W/m2
16:56 89.8 °F 42.1 °F 29.49 in SSW 2.0 mph 3.0 mph 19% 0.00 in 49.0 W/m2
17:01 89.4 °F 43.0 °F 29.50 in SE 2.0 mph 5.0 mph 20% 0.00 in 46.0 W/m2
17:06 89.2 °F 43.0 °F 29.50 in North 6.9 mph 7.0 mph 20% 0.00 in 40.0 W/m2
17:11 88.2 °F 46.8 °F 29.50 in NE 6.0 mph 11.0 mph 24% 0.00 in 35.0 W/m2
17:16 86.9 °F 46.8 °F 29.51 in West 2.9 mph 9.0 mph 25% 0.00 in 35.0 W/m2
17:21 85.5 °F 50.5 °F 29.52 in North 8.9 mph 15.0 mph 30% 0.00 in 33.0 W/m2
17:26 84.0 °F 51.8 °F 29.52 in NNE 8.9 mph 14.0 mph 33% 0.00 in 39.0 W/m2
17:32 82.2 °F 50.2 °F 29.53 in NNW 4.9 mph 14.0 mph 33% 0.00 in 40.0 W/m2
17:37 81.3 °F 52.5 °F 29.53 in NE 13.0 mph 17.0 mph 37% 0.00 in 33.0 W/m2
17:43 79.5 °F 53.1 °F 29.54 in NE 8.9 mph 14.0 mph 40% 0.00 in 26.0 W/m2
17:48 78.6 °F 52.9 °F 29.54 in NNE 11.0 mph 19.0 mph 41% 0.00 in 30.0 W/m2
17:54 78.3 °F 53.2 °F 29.53 in NNE 6.0 mph 11.0 mph 42% 0.00 in 40.0 W/m2
17:59 78.3 °F 53.2 °F 29.53 in NNE 6.9 mph 12.0 mph 42% 0.00 in 60.0 W/m2
18:04 78.1 °F 53.8 °F 29.53 in North 6.0 mph 13.0 mph 43% 0.00 in 113.0 W/m2
18:10 78.3 °F 54.5 °F 29.53 in North 6.0 mph 11.0 mph 44% 0.00 in 134.0 W/m2
18:15 78.3 °F 55.2 °F 29.54 in NNE 6.0 mph 13.0 mph 45% 0.00 in 107.0 W/m2
18:21 78.1 °F 54.3 °F 29.55 in North 2.9 mph 7.0 mph 44% 0.00 in 62.0 W/m2
18:26 78.1 °F 54.3 °F 29.55 in ESE 2.9 mph 4.0 mph 44% 0.00 in 26.0 W/m2
18:31 78.1 °F 53.8 °F 29.57 in Calm   4.0 mph 43% 0.00 in 14.0 W/m2
18:36 77.7 °F 52.9 °F 29.57 in Calm   1.0 mph 42% 0.00 in 12.0 W/m2
18:41 77.7 °F 55.9 °F 29.57 in WNW 0.9 mph 2.0 mph 47% 0.00 in 18.0 W/m2
18:46 77.5 °F 57.4 °F 29.57 in Calm   6.0 mph 50% 0.00 in 28.0 W/m2
18:51 77.2 °F 57.0 °F 29.57 in Calm   2.0 mph 50% 0.00 in 26.0 W/m2
18:56 76.8 °F 55.6 °F 29.58 in Calm   2.0 mph 48% 0.00 in 18.0 W/m2
19:02 76.8 °F 56.3 °F 29.58 in Calm   2.0 mph 49% 0.00 in 11.0 W/m2
19:07 76.6 °F 55.4 °F 29.59 in Calm   1.0 mph 48% 0.00 in 9.0 W/m2
19:12 76.5 °F 55.9 °F 29.59 in East 2.0 mph 2.0 mph 49% 0.00 in 7.0 W/m2
19:17 76.5 °F 57.0 °F 29.60 in Calm   1.0 mph 51% 0.00 in 9.0 W/m2
19:22 76.5 °F 57.6 °F 29.60 in Calm   2.0 mph 52% 0.00 in 9.0 W/m2
19:27 76.5 °F 57.0 °F 29.60 in Calm   1.0 mph 51% 0.00 in 7.0 W/m2
19:32 76.5 °F 56.5 °F 29.59 in Calm   2.0 mph 50% 0.00 in 9.0 W/m2
19:37 76.5 °F 54.7 °F 29.59 in NNE 2.0 mph 4.0 mph 47% 0.00 in 7.0 W/m2
19:42 76.5 °F 54.7 °F 29.59 in Calm   3.0 mph 47% 0.00 in 0.0 W/m2
19:48 76.5 °F 54.1 °F 29.58 in Calm   1.0 mph 46% 0.00 in 0.0 W/m2
19:53 76.6 °F 53.1 °F 29.59 in Calm   4.0 mph 44% 0.00 in 0.0 W/m2
19:58 76.8 °F 53.2 °F 29.58 in NNE 2.0 mph 4.0 mph 44% 0.00 in 0.0 W/m2
20:03 76.8 °F 53.8 °F 29.58 in Calm   3.0 mph 45% 0.00 in 0.0 W/m2
20:08 76.6 °F 52.5 °F 29.59 in Calm   5.0 mph 43% 0.00 in 0.0 W/m2
20:13 76.8 °F 53.2 °F 29.60 in WSW 0.9 mph 2.0 mph 44% 0.00 in 0.0 W/m2
20:18 76.8 °F 52.7 °F 29.61 in West 2.0 mph 7.0 mph 43% 0.00 in 0.0 W/m2
20:23 77.2 °F 53.6 °F 29.61 in Calm   8.0 mph 44% 0.00 in 0.0 W/m2
20:29 77.2 °F 55.4 °F 29.62 in WSW 2.9 mph 7.0 mph 47% 0.00 in 0.0 W/m2
20:34 76.6 °F 56.7 °F 29.62 in SSW 6.0 mph 10.0 mph 50% 0.00 in 0.0 W/m2
20:39 75.9 °F 56.5 °F 29.63 in Calm   6.0 mph 51% 0.00 in 0.0 W/m2
20:44 75.7 °F 56.8 °F 29.63 in Calm   5.0 mph 52% 0.00 in 0.0 W/m2
20:49 75.4 °F 55.9 °F 29.63 in Calm   2.0 mph 51% 0.00 in 0.0 W/m2
20:54 75.4 °F 56.5 °F 29.63 in SE 0.9 mph 4.0 mph 52% 0.00 in 0.0 W/m2
20:59 75.0 °F 55.6 °F 29.63 in SW 0.9 mph 3.0 mph 51% 0.00 in 0.0 W/m2
21:04 75.0 °F 56.1 °F 29.63 in Calm   2.0 mph 52% 0.00 in 0.0 W/m2
21:09 74.8 °F 56.5 °F 29.63 in SE 0.9 mph 3.0 mph 53% 0.00 in 0.0 W/m2
21:15 74.7 °F 56.5 °F 29.63 in Calm     53% 0.00 in 0.0 W/m2
21:20 74.7 °F 56.8 °F 29.64 in Calm   1.0 mph 54% 0.00 in 0.0 W/m2
21:25 74.5 °F 55.2 °F 29.64 in Calm   3.0 mph 51% 0.00 in 0.0 W/m2
21:30 74.5 °F 54.7 °F 29.65 in Calm   1.0 mph 50% 0.00 in 0.0 W/m2
21:35 74.7 °F 54.9 °F 29.65 in SSW 0.9 mph 1.0 mph 50% 0.00 in 0.0 W/m2
21:40 74.7 °F 54.9 °F 29.65 in Calm   1.0 mph 50% 0.00 in 0.0 W/m2
21:45 74.7 °F 54.9 °F 29.65 in Calm     50% 0.00 in 0.0 W/m2
21:50 74.7 °F 53.6 °F 29.65 in WNW 0.9 mph 5.0 mph 48% 0.00 in 0.0 W/m2
21:55 74.7 °F 53.1 °F 29.65 in West 2.0 mph 3.0 mph 47% 0.00 in 0.0 W/m2
22:01 74.7 °F 53.1 °F 29.65 in Calm   1.0 mph 47% 0.00 in 0.0 W/m2
22:06 74.8 °F 53.2 °F 29.65 in Calm     47% 0.00 in 0.0 W/m2
22:11 74.8 °F 53.2 °F 29.65 in Calm     47% 0.00 in 0.0 W/m2
22:16 74.8 °F 52.7 °F 29.65 in Calm     46% 0.00 in 0.0 W/m2
22:21 74.7 °F 52.5 °F 29.65 in Calm     46% 0.00 in 0.0 W/m2
22:26 74.7 °F 53.1 °F 29.65 in Calm     47% 0.00 in 0.0 W/m2
22:31 74.7 °F 53.1 °F 29.65 in Calm     47% 0.00 in 0.0 W/m2
22:37 74.7 °F 53.1 °F 29.65 in Calm   2.0 mph 47% 0.00 in 0.0 W/m2
22:42 74.7 °F 53.1 °F 29.65 in Calm   1.0 mph 47% 0.00 in 0.0 W/m2
22:47 74.7 °F 53.6 °F 29.66 in Calm   1.0 mph 48% 0.00 in 0.0 W/m2
22:53 74.5 °F 52.9 °F 29.65 in Calm   1.0 mph 47% 0.00 in 0.0 W/m2
22:58 74.5 °F 52.9 °F 29.65 in Calm     47% 0.00 in 0.0 W/m2
23:03 74.5 °F 52.9 °F 29.65 in Calm     47% 0.00 in 0.0 W/m2
23:08 74.5 °F 52.9 °F 29.66 in Calm     47% 0.00 in 0.0 W/m2
23:13 74.3 °F 53.4 °F 29.66 in Calm   1.0 mph 48% 0.00 in 0.0 W/m2
23:18 74.1 °F 53.8 °F 29.66 in Calm     49% 0.00 in 0.0 W/m2
23:23 73.9 °F 53.6 °F 29.66 in NE 2.0 mph 3.0 mph 49% 0.00 in 0.0 W/m2
23:28 73.8 °F 54.0 °F 29.66 in Calm   1.0 mph 50% 0.00 in 0.0 W/m2
23:33 73.6 °F 53.2 °F 29.66 in NE 2.9 mph 4.0 mph 49% 0.00 in 0.0 W/m2
23:38 73.6 °F 53.2 °F 29.66 in ENE 2.0 mph 3.0 mph 49% 0.00 in 0.0 W/m2
23:43 73.4 °F 53.1 °F 29.66 in Calm   2.0 mph 49% 0.00 in 0.0 W/m2
23:48 73.4 °F 53.6 °F 29.66 in Calm   1.0 mph 50% 0.00 in 0.0 W/m2
23:54 73.4 °F 53.6 °F 29.65 in Calm   1.0 mph 50% 0.00 in 0.0 W/m2
23:59 73.4 °F 53.6 °F 29.65 in Calm     50% 0.00 in 0.0 W/m2
Olympia, Windhoek, Namibia
Compliments of Weather Underground - 3.25 mb